This is the latest recevied weather packets stored in our database for station/object EA1IRT-1. If no packets are shown the sender has not sent any weather packets the latest 10 day(s).
| Time | Temp. | Humidity | Pressure | Rain* | Wind** | Luminosity | Snow |
|---|---|---|---|---|---|---|---|
| 1777720895 | 21.11° C | 63% | 1015.4 hPa | - | - | - | - |
| 1777720002 | 21.67° C | 65% | 1015.5 hPa | - | - | - | - |
| 1777719070 | 21.11° C | 66% | 1015.6 hPa | - | - | - | - |
| 1777718146 | 20.56° C | 70% | 1015.7 hPa | - | - | - | - |
| 1777717246 | 20.56° C | 72% | 1016.1 hPa | - | - | - | - |
| 1777716346 | 18.33° C | 82% | 1016.1 hPa | - | - | - | - |
| 1777715446 | 17.78° C | 84% | 1016.3 hPa | - | - | - | - |
| 1777714552 | 18.33° C | 82% | 1016.3 hPa | - | - | - | - |
| 1777713646 | 19.44° C | 75% | 1016.2 hPa | - | - | - | - |
| 1777712746 | 21.11° C | 70% | 1016.3 hPa | - | - | - | - |
| 1777711855 | 20° C | 77% | 1016.3 hPa | - | - | - | - |
| 1777710946 | 18.89° C | 81% | 1016.2 hPa | - | - | - | - |
| 1777710052 | 18.33° C | 89% | 1016.3 hPa | - | - | - | - |
| 1777709558 | 17.78° C | 94% | 1016.4 hPa | - | - | - | - |
| 1777709145 | 17.78° C | 94% | 1016.4 hPa | - | - | - | - |
| 1777708220 | 17.22° C | 99% | 1016.4 hPa | - | - | - | - |
| 1777707296 | 17.22° C | 100% | 1016.2 hPa | - | - | - | - |
| 1777706396 | 16.11° C | 100% | 1016.3 hPa | - | - | - | - |
| 1777705496 | 15.56° C | 100% | 1016.2 hPa | - | - | - | - |
| 1777704596 | 15.56° C | 100% | 1016.3 hPa | - | - | - | - |
| 1777703703 | 15.56° C | 100% | 1016.1 hPa | - | - | - | - |
| 1777702796 | 15° C | 100% | 1016.1 hPa | - | - | - | - |
| 1777701896 | 14.44° C | 100% | 1015.9 hPa | - | - | - | - |
| 1777700996 | 13.89° C | 100% | 1015.9 hPa | - | - | - | - |
| 1777700102 | 13.89° C | 100% | 1015.8 hPa | - | - | - | - |
* Rain since midnight (hover to see other rain measurements)
** Current wind speed in m/s (hover to see current wind gust speed)